createdAt,value
2016-11-25T00:02:11.778Z,1027.9
2016-11-25T00:07:16.008Z,1027.7
2016-11-25T00:12:20.242Z,1027.8
2016-11-25T00:17:24.465Z,1027.8
2016-11-25T00:22:28.573Z,1027.7
2016-11-25T00:27:32.693Z,1027.8
2016-11-25T00:32:36.807Z,1027.8
2016-11-25T00:37:41.233Z,1027.9
2016-11-25T00:42:45.321Z,1028
2016-11-25T00:47:49.743Z,1027.9
2016-11-25T00:52:54.163Z,1027.7
2016-11-25T00:57:58.249Z,1027.7
2016-11-25T01:03:02.337Z,1027.6
2016-11-25T01:08:06.430Z,1027.7
2016-11-25T01:13:10.514Z,1027.6
2016-11-25T01:18:14.598Z,1027.7
2016-11-25T01:23:19.023Z,1027.7
2016-11-25T01:28:23.113Z,1027.6
2016-11-25T01:33:27.876Z,1027.6
2016-11-25T01:38:32.329Z,1027.5
2016-11-25T01:43:37.083Z,1027.5
2016-11-25T01:48:41.171Z,1027.4
2016-11-25T01:53:45.589Z,1027.6
2016-11-25T01:58:50.008Z,1027.5
2016-11-25T02:03:54.097Z,1027.5
2016-11-25T02:08:58.545Z,1027.5
2016-11-25T02:14:02.964Z,1027.4
2016-11-25T02:19:07.050Z,1027.5
2016-11-25T02:24:11.139Z,1027.6
2016-11-25T02:29:15.236Z,1027.5
2016-11-25T02:34:19.324Z,1027.5
2016-11-25T02:39:23.750Z,1027.3
2016-11-25T02:44:28.191Z,1027.3
2016-11-25T02:49:32.619Z,1027.2
2016-11-25T02:54:36.714Z,1027.3
2016-11-25T02:59:40.802Z,1027.3
2016-11-25T03:04:45.241Z,1027.3
2016-11-25T03:09:49.335Z,1027.3
2016-11-25T03:14:53.441Z,1027.3
2016-11-25T03:19:57.869Z,1027.3
2016-11-25T03:25:02.309Z,1027.3
2016-11-25T03:30:06.735Z,1027.4
2016-11-25T03:35:11.164Z,1027.4
2016-11-25T03:40:15.591Z,1027.4
2016-11-25T03:45:19.889Z,1027.5
2016-11-25T03:50:23.978Z,1027.4
2016-11-25T03:55:28.063Z,1027.4
2016-11-25T04:00:32.152Z,1027.4
2016-11-25T04:05:36.599Z,1027.3
2016-11-25T04:10:41.027Z,1027.4
2016-11-25T04:15:45.120Z,1027.3
2016-11-25T04:20:49.217Z,1027.3
2016-11-25T04:25:53.642Z,1027.2
2016-11-25T04:30:58.408Z,1027.1
2016-11-25T04:36:02.503Z,1027.1
2016-11-25T04:41:06.604Z,1027
2016-11-25T04:46:10.707Z,1027
2016-11-25T04:51:14.805Z,1027
2016-11-25T04:56:18.896Z,1027.1
2016-11-25T05:01:23.331Z,1027
2016-11-25T05:06:27.429Z,1027.1
2016-11-25T05:11:31.524Z,1027.1
2016-11-25T05:16:35.618Z,1027
2016-11-25T05:21:40.043Z,1027.1
2016-11-25T05:26:44.469Z,1026.9
2016-11-25T05:31:48.572Z,1026.9
2016-11-25T05:36:53.050Z,1027
2016-11-25T05:41:57.154Z,1027.1
2016-11-25T05:47:01.586Z,1027.1
2016-11-25T05:52:06.010Z,1027.1
2016-11-25T05:57:10.443Z,1027
2016-11-25T06:02:14.875Z,1027.1
2016-11-25T06:07:19.306Z,1027
2016-11-25T06:12:23.390Z,1027.2
2016-11-25T06:17:27.482Z,1027.2
2016-11-25T06:22:31.594Z,1027.3
2016-11-25T06:27:36.729Z,1027.3
2016-11-25T06:32:41.829Z,1027.3
2016-11-25T06:37:45.931Z,1027.3
2016-11-25T06:42:50.025Z,1027.4
2016-11-25T06:47:54.813Z,1027.3
2016-11-25T06:52:59.875Z,1027.3
2016-11-25T06:58:03.968Z,1027.3
2016-11-25T07:03:08.064Z,1027.2
2016-11-25T07:08:12.163Z,1027.1
2016-11-25T07:13:16.285Z,1027.1
2016-11-25T07:18:20.703Z,1027.2
2016-11-25T07:23:24.870Z,1027.3
2016-11-25T07:28:29.309Z,1027.3
2016-11-25T07:33:33.399Z,1027.4
2016-11-25T07:38:37.841Z,1027.5
2016-11-25T07:43:42.276Z,1027.5
2016-11-25T07:48:46.372Z,1027.6
2016-11-25T07:53:50.479Z,1027.6
2016-11-25T07:58:54.574Z,1027.5
2016-11-25T08:03:58.673Z,1027.6
2016-11-25T08:09:03.133Z,1027.7
2016-11-25T08:14:22.428Z,1027.7
2016-11-25T08:19:26.867Z,1027.8
2016-11-25T08:24:31.701Z,1027.7
2016-11-25T08:29:36.139Z,1027.7
2016-11-25T08:34:40.237Z,1027.6
2016-11-25T08:39:44.678Z,1027.6
2016-11-25T08:44:49.110Z,1027.7
2016-11-25T08:49:53.214Z,1027.8
2016-11-25T08:54:57.307Z,1027.8
2016-11-25T09:00:01.740Z,1027.8
2016-11-25T09:05:05.835Z,1027.8
2016-11-25T09:10:09.945Z,1027.8
2016-11-25T09:15:14.375Z,1027.8
2016-11-25T09:20:18.479Z,1027.8
2016-11-25T09:25:22.593Z,1027.9
2016-11-25T09:30:26.701Z,1027.9
2016-11-25T09:35:30.792Z,1027.9
2016-11-25T09:40:34.896Z,1028
2016-11-25T09:45:39.330Z,1027.9
2016-11-25T09:50:43.763Z,1027.9
2016-11-25T09:55:48.197Z,1027.9
2016-11-25T10:00:52.639Z,1028
2016-11-25T10:05:56.741Z,1028
2016-11-25T10:11:00.841Z,1028.1
2016-11-25T10:16:05.283Z,1028
2016-11-25T10:21:09.390Z,1028
2016-11-25T10:26:13.493Z,1028
2016-11-25T10:31:17.590Z,1028
2016-11-25T10:36:22.354Z,1027.9
2016-11-25T10:41:26.453Z,1027.9
2016-11-25T10:46:30.550Z,1027.8
2016-11-25T10:51:34.654Z,1027.8
2016-11-25T10:56:39.098Z,1027.8
2016-11-25T11:01:43.870Z,1027.8
2016-11-25T11:06:47.972Z,1027.8
2016-11-25T11:11:52.070Z,1027.6
2016-11-25T11:16:56.167Z,1027.6
2016-11-25T11:22:00.597Z,1027.6
2016-11-25T11:27:04.691Z,1027.6
2016-11-25T11:32:09.121Z,1027.5
2016-11-25T11:37:13.898Z,1027.4
2016-11-25T11:42:18.327Z,1027.4
2016-11-25T11:47:22.429Z,1027.4
2016-11-25T11:52:26.524Z,1027.3
2016-11-25T11:57:30.953Z,1027.3
2016-11-25T12:02:35.051Z,1027.2
2016-11-25T12:07:39.151Z,1027.1
2016-11-25T12:12:43.250Z,1027.1
2016-11-25T12:17:47.360Z,1027
2016-11-25T12:22:51.463Z,1027.1
2016-11-25T12:27:55.570Z,1027
2016-11-25T12:32:59.662Z,1027.1
2016-11-25T12:38:03.760Z,1027
2016-11-25T12:43:07.854Z,1027
2016-11-25T12:48:12.300Z,1026.9
2016-11-25T12:53:16.400Z,1026.9
2016-11-25T12:58:20.495Z,1026.9
2016-11-25T13:03:24.597Z,1026.8
2016-11-25T13:08:28.756Z,1026.8
2016-11-25T13:13:32.858Z,1026.7
2016-11-25T13:18:37.963Z,1026.7
2016-11-25T13:23:42.724Z,1026.6
2016-11-25T13:28:46.837Z,1026.6
2016-11-25T13:33:51.605Z,1026.5
2016-11-25T13:38:56.038Z,1026.5
2016-11-25T13:44:00.471Z,1026.5
2016-11-25T13:49:04.570Z,1026.6
2016-11-25T13:54:08.668Z,1026.5
2016-11-25T13:59:12.769Z,1026.4
2016-11-25T14:04:16.879Z,1026.4
2016-11-25T14:09:21.317Z,1026.3
2016-11-25T14:14:26.119Z,1026.3
2016-11-25T14:19:30.548Z,1026.3
2016-11-25T14:24:34.987Z,1026.2
2016-11-25T14:29:39.416Z,1026.1
2016-11-25T14:34:43.512Z,1026.1
2016-11-25T14:39:47.613Z,1026.1
2016-11-25T14:44:52.059Z,1026.1
2016-11-25T14:49:56.163Z,1026.1
2016-11-25T14:55:00.262Z,1026.1
2016-11-25T15:00:04.354Z,1026
2016-11-25T15:05:08.799Z,1026
2016-11-25T15:10:13.250Z,1026
2016-11-25T15:15:17.694Z,1026.2
2016-11-25T15:20:22.126Z,1026.2
2016-11-25T15:25:26.562Z,1026.3
2016-11-25T15:30:30.697Z,1026.4
2016-11-25T15:35:35.128Z,1026.3
2016-11-25T15:40:39.574Z,1026.3
2016-11-25T15:45:44.707Z,1026.3
2016-11-25T15:50:49.345Z,1026.3
2016-11-25T15:55:53.448Z,1026.3
2016-11-25T16:00:57.894Z,1026.3
2016-11-25T16:06:02.005Z,1026.3
2016-11-25T16:11:06.100Z,1026.3
2016-11-25T16:16:10.201Z,1026.3
2016-11-25T16:21:14.306Z,1026.3
2016-11-25T16:26:18.447Z,1026.2
2016-11-25T16:31:24.030Z,1026.1
2016-11-25T16:36:28.602Z,1026.1
2016-11-25T16:41:33.030Z,1026.1
2016-11-25T16:46:37.130Z,1026.1
2016-11-25T16:51:41.565Z,1026.1
2016-11-25T16:56:45.663Z,1026
2016-11-25T17:01:49.790Z,1026
2016-11-25T17:06:54.085Z,1026
2016-11-25T17:11:58.188Z,1026
2016-11-25T17:17:02.955Z,1026
2016-11-25T17:22:07.048Z,1026
2016-11-25T17:27:11.147Z,1026
2016-11-25T17:32:15.252Z,1026
2016-11-25T17:37:19.353Z,1026.1
2016-11-25T17:42:23.842Z,1026.1
2016-11-25T17:47:28.269Z,1026.1
2016-11-25T17:52:32.360Z,1026.1
2016-11-25T17:57:36.813Z,1026.1
2016-11-25T18:02:41.296Z,1026.1
2016-11-25T18:07:45.598Z,1026.1
2016-11-25T18:12:50.041Z,1026
2016-11-25T18:23:14.073Z,1025.9
2016-11-25T18:28:18.174Z,1026
2016-11-25T18:33:22.335Z,1026.1
2016-11-25T18:38:26.427Z,1026.1
2016-11-25T18:43:30.531Z,1026.1
2016-11-25T18:48:34.977Z,1026.2
2016-11-25T18:53:39.068Z,1026.2
2016-11-25T18:58:43.169Z,1026.1
2016-11-25T19:03:47.261Z,1026.1
2016-11-25T19:08:51.357Z,1026.1
2016-11-25T19:13:55.788Z,1026.2
2016-11-25T19:18:59.883Z,1026.1
2016-11-25T19:24:04.309Z,1026.1
2016-11-25T19:29:08.412Z,1026.1
2016-11-25T19:34:12.523Z,1026.1
2016-11-25T19:39:16.620Z,1026
2016-11-25T19:44:21.068Z,1026
2016-11-25T19:49:25.182Z,1025.9
2016-11-25T19:54:29.279Z,1026
2016-11-25T19:59:33.383Z,1026
2016-11-25T20:04:37.498Z,1026
2016-11-25T20:09:41.944Z,1025.9
2016-11-25T20:14:46.723Z,1025.9
2016-11-25T20:19:51.074Z,1025.9
2016-11-25T20:24:55.509Z,1025.9
2016-11-25T20:29:59.616Z,1025.9
2016-11-25T20:35:03.720Z,1025.9
2016-11-25T20:40:08.164Z,1025.9
2016-11-25T20:45:12.592Z,1025.9
2016-11-25T20:50:16.693Z,1025.8
2016-11-25T20:55:20.794Z,1025.8
2016-11-25T21:00:24.895Z,1025.8
2016-11-25T21:05:29.130Z,1025.6
2016-11-25T21:10:33.550Z,1025.7
2016-11-25T21:15:37.649Z,1025.6
2016-11-25T21:20:42.074Z,1025.5
2016-11-25T21:25:46.167Z,1025.5
2016-11-25T21:30:50.285Z,1025.5
2016-11-25T21:35:54.376Z,1025.5
2016-11-25T21:40:58.507Z,1025.5
2016-11-25T21:46:02.606Z,1025.5
2016-11-25T21:51:07.367Z,1025.5
2016-11-25T21:56:11.808Z,1025.4
2016-11-25T22:01:15.901Z,1025.4
2016-11-25T22:06:20.315Z,1025.3
2016-11-25T22:11:24.745Z,1025.2
2016-11-25T22:16:28.839Z,1025.2
2016-11-25T22:21:33.276Z,1025.2
2016-11-25T22:26:37.368Z,1025.2
2016-11-25T22:31:41.467Z,1025.2
2016-11-25T22:36:45.905Z,1025.2
2016-11-25T22:41:50.341Z,1025.3
2016-11-25T22:46:55.109Z,1025.2
2016-11-25T22:51:59.537Z,1025.3
2016-11-25T22:57:03.622Z,1025.2
2016-11-25T23:02:07.727Z,1025.1
2016-11-25T23:07:12.164Z,1025
2016-11-25T23:12:16.264Z,1025
2016-11-25T23:17:20.354Z,1025
2016-11-25T23:22:24.450Z,1025
2016-11-25T23:27:28.551Z,1025
2016-11-25T23:32:32.995Z,1024.9
2016-11-25T23:37:37.098Z,1024.9
2016-11-25T23:42:41.525Z,1024.9
2016-11-25T23:47:45.622Z,1024.8
2016-11-25T23:52:50.395Z,1024.7
2016-11-25T23:57:54.825Z,1024.6
